createdAt,value
2018-05-13T00:00:18.093Z,0.00
2018-05-13T00:01:18.111Z,0.00
2018-05-13T00:02:18.136Z,0.00
2018-05-13T00:03:18.168Z,0.00
2018-05-13T00:04:18.171Z,0.00
2018-05-13T00:05:18.198Z,0.00
2018-05-13T00:06:18.234Z,0.00
2018-05-13T00:07:18.282Z,0.00
2018-05-13T00:08:18.248Z,0.00
2018-05-13T00:09:18.276Z,0.00
2018-05-13T00:10:18.291Z,0.00
2018-05-13T00:11:18.356Z,0.00
2018-05-13T00:12:18.342Z,0.00
2018-05-13T00:13:18.382Z,0.00
2018-05-13T00:14:18.368Z,0.00
2018-05-13T00:15:18.400Z,0.00
2018-05-13T00:16:18.413Z,0.00
2018-05-13T00:17:18.468Z,0.00
2018-05-13T00:18:18.453Z,0.00
2018-05-13T00:19:18.482Z,0.00
2018-05-13T00:20:18.496Z,0.00
2018-05-13T00:21:18.515Z,0.00
2018-05-13T00:22:18.530Z,0.00
2018-05-13T00:23:18.574Z,0.00
2018-05-13T00:24:18.567Z,0.00
2018-05-13T00:25:18.594Z,0.00
2018-05-13T00:26:18.608Z,0.00
2018-05-13T00:27:18.693Z,0.00
2018-05-13T00:28:18.692Z,0.00
2018-05-13T00:29:18.702Z,0.00
2018-05-13T00:30:18.689Z,0.00
2018-05-13T00:31:18.721Z,0.00
2018-05-13T00:32:18.731Z,0.00
2018-05-13T00:33:18.756Z,0.00
2018-05-13T00:34:18.774Z,0.00
2018-05-13T00:35:18.785Z,0.00
2018-05-13T00:36:18.816Z,0.00
2018-05-13T00:37:18.828Z,0.00
2018-05-13T00:38:18.848Z,0.00
2018-05-13T00:39:18.869Z,0.00
2018-05-13T00:40:18.892Z,0.00
2018-05-13T00:41:18.997Z,0.00
2018-05-13T00:42:18.966Z,0.00
2018-05-13T00:43:18.949Z,0.00
2018-05-13T00:44:18.982Z,0.00
2018-05-13T00:45:19.003Z,0.00
2018-05-13T00:46:19.060Z,0.00
2018-05-13T00:47:19.030Z,0.00
2018-05-13T00:48:19.123Z,0.00
2018-05-13T00:49:19.071Z,0.00
2018-05-13T00:50:19.083Z,0.00
2018-05-13T00:51:19.176Z,0.00
2018-05-13T00:52:19.182Z,0.00
2018-05-13T00:53:19.142Z,0.00
2018-05-13T00:54:19.160Z,0.00
2018-05-13T00:55:19.182Z,0.00
2018-05-13T00:56:19.249Z,0.00
2018-05-13T00:57:19.222Z,0.00
2018-05-13T00:58:19.279Z,0.00
2018-05-13T00:59:19.259Z,0.00
2018-05-13T01:00:19.312Z,0.00
2018-05-13T01:01:19.310Z,0.00
2018-05-13T01:02:19.323Z,0.00
2018-05-13T01:03:19.336Z,0.00
2018-05-13T01:04:19.377Z,0.00
2018-05-13T01:05:19.377Z,0.00
2018-05-13T01:06:19.521Z,0.00
2018-05-13T01:07:19.414Z,0.00
2018-05-13T01:08:19.435Z,0.00
2018-05-13T01:09:19.453Z,0.00
2018-05-13T01:10:19.483Z,0.00
2018-05-13T01:11:19.554Z,0.00
2018-05-13T01:12:19.611Z,0.00
2018-05-13T01:13:19.536Z,0.00
2018-05-13T01:14:19.573Z,0.00
2018-05-13T01:15:19.665Z,0.00
2018-05-13T01:16:19.593Z,0.00
2018-05-13T01:17:19.612Z,0.00
2018-05-13T01:18:19.640Z,0.00
2018-05-13T01:19:19.683Z,0.00
2018-05-13T01:20:19.693Z,0.00
2018-05-13T01:21:19.691Z,0.00
2018-05-13T01:22:19.718Z,0.00
2018-05-13T01:23:19.814Z,0.00
2018-05-13T01:24:19.762Z,0.00
2018-05-13T01:25:19.770Z,0.00
2018-05-13T01:26:19.791Z,0.00
2018-05-13T01:27:19.879Z,0.00
2018-05-13T01:28:19.832Z,0.00
2018-05-13T01:29:19.846Z,0.00
2018-05-13T01:30:19.869Z,0.00
2018-05-13T01:31:19.883Z,0.00
2018-05-13T01:32:19.942Z,0.00
2018-05-13T01:33:19.929Z,0.00
2018-05-13T01:34:19.944Z,0.00
2018-05-13T01:35:19.963Z,0.00
2018-05-13T01:36:19.996Z,0.00
2018-05-13T01:37:20.004Z,0.00
2018-05-13T01:38:20.068Z,0.00
2018-05-13T01:39:20.039Z,0.00
2018-05-13T01:40:20.162Z,0.00
2018-05-13T01:41:20.086Z,0.00
2018-05-13T01:42:20.103Z,0.00
2018-05-13T01:43:20.121Z,0.00
2018-05-13T01:44:20.143Z,0.00
2018-05-13T01:45:20.189Z,0.00
2018-05-13T01:46:20.175Z,0.00
2018-05-13T01:47:20.202Z,0.00
2018-05-13T01:48:20.222Z,0.00
2018-05-13T01:49:20.265Z,0.00
2018-05-13T01:50:20.256Z,0.00
2018-05-13T01:51:20.283Z,0.00
2018-05-13T01:52:20.299Z,0.00
2018-05-13T01:53:20.313Z,0.00
2018-05-13T01:54:20.382Z,0.00
2018-05-13T01:55:20.361Z,0.00
2018-05-13T01:56:20.381Z,0.00
2018-05-13T01:57:20.391Z,0.00
2018-05-13T01:58:20.451Z,0.00
2018-05-13T01:59:20.430Z,0.00
2018-05-13T02:00:20.449Z,0.00
2018-05-13T02:01:20.475Z,0.00
2018-05-13T02:02:20.485Z,0.00
2018-05-13T02:03:20.516Z,0.00
2018-05-13T02:04:20.533Z,0.00
2018-05-13T02:05:20.546Z,0.00
2018-05-13T02:06:20.570Z,0.00
2018-05-13T02:07:20.588Z,0.00
2018-05-13T02:08:20.601Z,0.00
2018-05-13T02:09:20.624Z,0.00
2018-05-13T02:10:20.678Z,0.00
2018-05-13T02:11:20.669Z,0.00
2018-05-13T02:12:20.682Z,0.00
2018-05-13T02:13:20.702Z,0.00
2018-05-13T02:14:20.727Z,0.00
2018-05-13T02:15:20.743Z,0.00
2018-05-13T02:16:20.761Z,0.00
2018-05-13T02:17:20.777Z,0.00
2018-05-13T02:18:20.804Z,0.00
2018-05-13T02:19:20.822Z,0.00
2018-05-13T02:20:20.836Z,0.00
2018-05-13T02:21:20.855Z,0.00
2018-05-13T02:22:20.880Z,0.00
2018-05-13T02:23:20.913Z,0.00
2018-05-13T02:24:20.912Z,0.00
2018-05-13T02:25:20.932Z,0.00
2018-05-13T02:26:20.968Z,0.00
2018-05-13T02:27:20.979Z,0.00
2018-05-13T02:28:20.987Z,0.00
2018-05-13T02:29:21.014Z,0.00
2018-05-13T02:30:21.028Z,0.00
2018-05-13T02:31:21.047Z,0.00
2018-05-13T02:32:21.144Z,0.00
2018-05-13T02:33:21.107Z,0.00
2018-05-13T02:34:21.123Z,0.00
2018-05-13T02:35:21.135Z,4.00
2018-05-13T02:36:21.160Z,4.00
2018-05-13T02:37:21.223Z,4.00
2018-05-13T02:38:21.186Z,4.00
2018-05-13T02:39:21.279Z,4.00
2018-05-13T02:40:21.228Z,4.00
2018-05-13T02:41:21.262Z,4.00
2018-05-13T02:42:21.276Z,0.00
2018-05-13T02:43:21.365Z,0.00
2018-05-13T02:44:21.301Z,0.00
2018-05-13T02:45:21.346Z,0.00
2018-05-13T02:46:21.353Z,4.00
2018-05-13T02:47:21.398Z,4.00
2018-05-13T02:48:21.373Z,4.00
2018-05-13T02:49:21.401Z,0.00
2018-05-13T02:50:21.461Z,4.00
2018-05-13T02:51:21.433Z,4.00
2018-05-13T02:52:21.462Z,4.00
2018-05-13T02:53:21.493Z,4.00
2018-05-13T02:54:21.495Z,4.00
2018-05-13T02:55:21.508Z,4.00
2018-05-13T02:56:22.434Z,8.00
2018-05-13T02:57:21.673Z,8.00
2018-05-13T02:58:21.600Z,8.00
2018-05-13T02:59:21.633Z,8.00
2018-05-13T03:00:21.657Z,8.00
2018-05-13T03:01:21.848Z,12.00
2018-05-13T03:02:21.733Z,16.00
2018-05-13T03:03:21.672Z,16.00
2018-05-13T03:04:21.684Z,20.00
2018-05-13T03:05:21.728Z,24.00
2018-05-13T03:06:21.721Z,24.00
2018-05-13T03:07:21.814Z,28.00
2018-05-13T03:08:21.799Z,32.00
2018-05-13T03:09:21.784Z,32.00
2018-05-13T03:10:21.853Z,40.00
2018-05-13T03:11:21.890Z,44.00
2018-05-13T03:12:21.876Z,56.00
2018-05-13T03:13:21.861Z,64.00
2018-05-13T03:14:21.875Z,72.00
2018-05-13T03:15:21.932Z,80.00
2018-05-13T03:16:21.996Z,92.00
2018-05-13T03:17:21.935Z,108.00
2018-05-13T03:18:21.963Z,116.00
2018-05-13T03:19:21.973Z,132.00
2018-05-13T03:20:22.010Z,148.00
2018-05-13T03:21:22.054Z,168.00
2018-05-13T03:22:22.034Z,188.00
2018-05-13T03:23:22.073Z,212.00
2018-05-13T03:24:22.069Z,236.00
2018-05-13T03:25:22.119Z,264.00
2018-05-13T03:26:22.131Z,292.00
2018-05-13T03:27:22.124Z,320.00
2018-05-13T03:28:22.179Z,352.00
2018-05-13T03:29:22.250Z,384.00
2018-05-13T03:30:22.181Z,420.00
2018-05-13T03:31:22.199Z,456.00
2018-05-13T03:32:22.226Z,492.00
2018-05-13T03:33:22.246Z,532.00
2018-05-13T03:34:22.257Z,572.00
2018-05-13T03:35:22.350Z,620.00
2018-05-13T03:36:22.293Z,668.00
2018-05-13T03:37:22.316Z,724.00
2018-05-13T03:38:22.402Z,784.00
2018-05-13T03:39:22.353Z,848.00
2018-05-13T03:40:22.465Z,916.00
2018-05-13T03:41:22.485Z,992.00
2018-05-13T03:42:22.411Z,1076.00
2018-05-13T03:43:22.428Z,1164.00
2018-05-13T03:44:22.452Z,1252.00
2018-05-13T03:45:22.476Z,1352.00
2018-05-13T03:46:22.496Z,1448.00
2018-05-13T03:47:22.574Z,1552.00
2018-05-13T03:48:22.526Z,1656.00
2018-05-13T03:49:22.666Z,1776.00
2018-05-13T03:50:22.576Z,1896.00
2018-05-13T03:51:22.663Z,2028.00
2018-05-13T03:52:22.612Z,2160.00
2018-05-13T03:53:22.622Z,2300.00
2018-05-13T03:54:22.652Z,2440.00
2018-05-13T03:55:22.667Z,2588.00
2018-05-13T03:56:22.680Z,2740.00
2018-05-13T03:57:22.705Z,2896.00
2018-05-13T03:58:22.767Z,3060.00
2018-05-13T03:59:22.736Z,3232.00
2018-05-13T04:00:22.824Z,3396.00
2018-05-13T04:01:22.868Z,3564.00
2018-05-13T04:02:22.792Z,3732.00
2018-05-13T04:03:22.841Z,3900.00
2018-05-13T04:04:22.868Z,4064.00
2018-05-13T04:05:22.855Z,4216.00
2018-05-13T04:06:22.871Z,4344.00
2018-05-13T04:07:22.996Z,4468.00
2018-05-13T04:08:22.992Z,4592.00
2018-05-13T04:09:22.931Z,4724.00
2018-05-13T04:10:23.009Z,4848.00
2018-05-13T04:11:22.985Z,4956.00
2018-05-13T04:12:22.994Z,5064.00
2018-05-13T04:13:23.021Z,5196.00
2018-05-13T04:14:23.029Z,5340.00
2018-05-13T04:15:23.053Z,5476.00
2018-05-13T04:16:23.087Z,5608.00
2018-05-13T04:17:23.084Z,5708.00
2018-05-13T04:18:23.242Z,5792.00
2018-05-13T04:19:23.125Z,5864.00
2018-05-13T04:20:23.160Z,5976.00
2018-05-13T04:21:23.165Z,6132.00
2018-05-13T04:22:23.188Z,6244.00
2018-05-13T04:23:23.214Z,6432.00
2018-05-13T04:24:23.232Z,6552.00
2018-05-13T04:25:23.307Z,6688.00
2018-05-13T04:26:23.275Z,7008.00
2018-05-13T04:27:23.306Z,7308.00
2018-05-13T04:28:23.320Z,7436.00
2018-05-13T04:29:23.320Z,7548.00
2018-05-13T04:30:23.345Z,7692.00
2018-05-13T04:31:23.360Z,7800.00
2018-05-13T04:32:23.395Z,7888.00
2018-05-13T04:33:23.403Z,7972.00
2018-05-13T04:34:23.423Z,8052.00
2018-05-13T04:35:23.451Z,8156.00
2018-05-13T04:36:23.461Z,8228.00
2018-05-13T04:37:23.480Z,8224.00
2018-05-13T04:38:23.506Z,8180.00
2018-05-13T04:39:23.525Z,8144.00
2018-05-13T04:40:23.550Z,8128.00
2018-05-13T04:41:23.570Z,8116.00
2018-05-13T04:42:23.630Z,8104.00
2018-05-13T04:43:23.619Z,8088.00
2018-05-13T04:44:23.655Z,8060.00
2018-05-13T04:45:23.668Z,8048.00
2018-05-13T04:46:23.661Z,8060.00
2018-05-13T04:47:23.779Z,8060.00
2018-05-13T04:48:23.723Z,7960.00
2018-05-13T04:49:23.880Z,7736.00
2018-05-13T04:50:23.846Z,7420.00
2018-05-13T04:51:23.765Z,6912.00
2018-05-13T04:52:23.786Z,6840.00
2018-05-13T04:53:23.808Z,6848.00
2018-05-13T04:54:23.832Z,6920.00
2018-05-13T04:55:23.955Z,7028.00
2018-05-13T04:56:23.868Z,7164.00
2018-05-13T04:57:23.922Z,7288.00
2018-05-13T04:58:23.906Z,7404.00
2018-05-13T04:59:23.929Z,7460.00
2018-05-13T05:00:23.948Z,7456.00
2018-05-13T05:01:23.969Z,7444.00
2018-05-13T05:02:24.001Z,7448.00
2018-05-13T05:03:24.008Z,7488.00
2018-05-13T05:04:24.037Z,7564.00
2018-05-13T05:05:24.055Z,7664.00
2018-05-13T05:06:24.069Z,7808.00
2018-05-13T05:07:24.140Z,7972.00
2018-05-13T05:08:24.112Z,8128.00
2018-05-13T05:09:24.130Z,8220.00
2018-05-13T05:10:24.167Z,8280.00
2018-05-13T05:11:24.239Z,8340.00
2018-05-13T05:12:24.191Z,8396.00
2018-05-13T05:13:24.216Z,8480.00
2018-05-13T05:14:24.230Z,8612.00
2018-05-13T05:15:24.259Z,8724.00
2018-05-13T05:16:24.346Z,8780.00
2018-05-13T05:17:24.300Z,8752.00
2018-05-13T05:18:24.314Z,8700.00
2018-05-13T05:19:24.332Z,8660.00
2018-05-13T05:20:24.402Z,8648.00
2018-05-13T05:21:24.376Z,8688.00
2018-05-13T05:22:24.443Z,8820.00
2018-05-13T05:23:24.422Z,8984.00
2018-05-13T05:24:24.436Z,9048.00
2018-05-13T05:25:24.515Z,9048.00
2018-05-13T05:26:24.475Z,9036.00
2018-05-13T05:27:24.497Z,8980.00
2018-05-13T05:28:24.616Z,9004.00
2018-05-13T05:29:24.542Z,9160.00
2018-05-13T05:30:24.556Z,9452.00
2018-05-13T05:31:24.579Z,9784.00
2018-05-13T05:32:24.672Z,10056.00
2018-05-13T05:33:24.687Z,10264.00
2018-05-13T05:34:24.650Z,10476.00
2018-05-13T05:35:24.666Z,10648.00
2018-05-13T05:36:24.783Z,10916.00
2018-05-13T05:37:24.702Z,11304.00
2018-05-13T05:38:24.729Z,11696.00
2018-05-13T05:39:24.759Z,11972.00
2018-05-13T05:40:24.764Z,12164.00
2018-05-13T05:41:24.842Z,12376.00
2018-05-13T05:42:24.819Z,12364.00
2018-05-13T05:43:24.823Z,12512.00
2018-05-13T05:44:24.850Z,12828.00
2018-05-13T05:45:24.968Z,13124.00
2018-05-13T05:46:24.892Z,13328.00
2018-05-13T05:47:24.908Z,13836.00
2018-05-13T05:48:24.954Z,14296.00
2018-05-13T05:49:24.962Z,14432.00
2018-05-13T05:50:25.136Z,14332.00
2018-05-13T05:51:25.066Z,14312.00
2018-05-13T05:52:25.023Z,14272.00
2018-05-13T05:53:25.086Z,14520.00
2018-05-13T05:54:25.063Z,14704.00
2018-05-13T05:55:25.079Z,15128.00
2018-05-13T05:56:25.099Z,15444.00
2018-05-13T05:57:25.120Z,15716.00
2018-05-13T05:58:25.140Z,16328.00
2018-05-13T05:59:25.248Z,17024.00
2018-05-13T06:00:25.202Z,18688.00
2018-05-13T06:01:25.207Z,17760.00
2018-05-13T06:02:25.232Z,17212.00
2018-05-13T06:03:25.351Z,17156.00
2018-05-13T06:04:25.273Z,16740.00
2018-05-13T06:05:25.305Z,18304.00
2018-05-13T06:06:25.338Z,18752.00
2018-05-13T06:07:25.382Z,44160.00
2018-05-13T06:08:25.365Z,20352.00
2018-05-13T06:09:25.540Z,31936.00
2018-05-13T06:10:25.486Z,37472.00
2018-05-13T06:11:25.424Z,19104.00
2018-05-13T06:12:25.508Z,19424.00
2018-05-13T06:13:25.497Z,19392.00
2018-05-13T06:14:25.499Z,19072.00
2018-05-13T06:15:25.519Z,19616.00
2018-05-13T06:16:25.561Z,29536.00
2018-05-13T06:17:25.900Z,71648.00
2018-05-13T06:18:25.581Z,21056.00
2018-05-13T06:19:25.625Z,20704.00
2018-05-13T06:20:25.633Z,20160.00
2018-05-13T06:21:25.649Z,20160.00
2018-05-13T06:22:25.759Z,35744.00
2018-05-13T06:23:25.707Z,29984.00
2018-05-13T06:24:25.727Z,67520.00
2018-05-13T06:25:25.781Z,75840.00
2018-05-13T06:26:25.766Z,71392.00
2018-05-13T06:27:25.797Z,67072.00
2018-05-13T06:28:25.820Z,69920.00
2018-05-13T06:29:25.842Z,72576.00
2018-05-13T06:30:25.922Z,71616.00
2018-05-13T06:31:25.890Z,72672.00
2018-05-13T06:32:25.992Z,77664.00
2018-05-13T06:33:25.942Z,78784.00
2018-05-13T06:34:25.972Z,76960.00
2018-05-13T06:35:26.000Z,81216.00
2018-05-13T06:36:26.052Z,75232.00
2018-05-13T06:37:26.043Z,82400.00
2018-05-13T06:38:26.071Z,77664.00
2018-05-13T06:39:26.100Z,54272.00
2018-05-13T06:40:26.125Z,76672.00
2018-05-13T06:41:26.224Z,68224.00
2018-05-13T06:42:26.186Z,77024.00
2018-05-13T06:43:26.263Z,71552.00
2018-05-13T06:44:26.240Z,58080.00
2018-05-13T06:45:26.268Z,52288.00
2018-05-13T06:46:26.354Z,28032.00
2018-05-13T06:47:26.327Z,22432.00
2018-05-13T06:48:26.376Z,19744.00
2018-05-13T06:49:26.417Z,19488.00
2018-05-13T06:50:26.401Z,19872.00
2018-05-13T06:51:26.522Z,21408.00
2018-05-13T06:52:26.530Z,28000.00
2018-05-13T06:53:26.490Z,21312.00
2018-05-13T06:54:26.539Z,21760.00
2018-05-13T06:55:26.544Z,23072.00
2018-05-13T06:56:26.645Z,32352.00
2018-05-13T06:57:26.634Z,24448.00
2018-05-13T06:58:26.625Z,25184.00
2018-05-13T06:59:26.828Z,25504.00
2018-05-13T07:00:26.666Z,26912.00
2018-05-13T07:01:26.697Z,26912.00
2018-05-13T07:02:26.855Z,28992.00
2018-05-13T07:03:26.820Z,65920.00
2018-05-13T07:04:26.937Z,77344.00
2018-05-13T07:05:26.807Z,74848.00
2018-05-13T07:06:26.846Z,86752.00
2018-05-13T07:07:26.864Z,83456.00
2018-05-13T07:08:26.990Z,82592.00
2018-05-13T07:09:26.918Z,81760.00
2018-05-13T07:10:26.960Z,85376.00
2018-05-13T07:11:27.022Z,79136.00
2018-05-13T07:12:26.994Z,71456.00
2018-05-13T07:13:27.017Z,72992.00
2018-05-13T07:14:27.046Z,70848.00
2018-05-13T07:15:27.074Z,63968.00
2018-05-13T07:16:27.153Z,60416.00
2018-05-13T07:17:27.133Z,58080.00
2018-05-13T07:18:27.165Z,58176.00
2018-05-13T07:19:27.252Z,55008.00
2018-05-13T07:20:27.227Z,55328.00
2018-05-13T07:21:27.371Z,48032.00
2018-05-13T07:22:27.268Z,39552.00
2018-05-13T07:23:27.368Z,46912.00
2018-05-13T07:24:27.329Z,51136.00
2018-05-13T07:25:27.375Z,50528.00
2018-05-13T07:26:27.385Z,60768.00
2018-05-13T07:27:27.417Z,63328.00
2018-05-13T07:28:27.533Z,63584.00
2018-05-13T07:29:27.471Z,63392.00
2018-05-13T07:30:27.497Z,55648.00
2018-05-13T07:31:27.544Z,49696.00
2018-05-13T07:32:27.551Z,51584.00
2018-05-13T07:33:27.594Z,44256.00
2018-05-13T07:34:27.632Z,46240.00
2018-05-13T07:35:27.693Z,49344.00
2018-05-13T07:36:27.749Z,50368.00
2018-05-13T07:37:27.715Z,53856.00
2018-05-13T07:38:27.747Z,52480.00
2018-05-13T07:39:27.824Z,54368.00
2018-05-13T07:40:27.784Z,54432.00
2018-05-13T07:41:27.834Z,54240.00
2018-05-13T07:42:27.843Z,59680.00
2018-05-13T07:43:28.043Z,58880.00
2018-05-13T07:44:27.904Z,52992.00
2018-05-13T07:45:27.950Z,57280.00
2018-05-13T07:46:27.958Z,63904.00
2018-05-13T07:47:27.994Z,65024.00
2018-05-13T07:48:28.068Z,65696.00
2018-05-13T07:49:28.065Z,68384.00
2018-05-13T07:50:28.111Z,68448.00
2018-05-13T07:51:28.135Z,68576.00
2018-05-13T07:52:28.142Z,68480.00
2018-05-13T07:53:28.161Z,65824.00
2018-05-13T07:54:28.234Z,65280.00
2018-05-13T07:55:28.221Z,61024.00
2018-05-13T07:56:28.248Z,51456.00
2018-05-13T07:57:28.277Z,53376.00
2018-05-13T07:58:28.313Z,55264.00
2018-05-13T07:59:28.417Z,53888.00
2018-05-13T08:00:28.369Z,53120.00
2018-05-13T08:01:28.429Z,51584.00
2018-05-13T08:02:28.432Z,53920.00
2018-05-13T08:03:28.506Z,51040.00
2018-05-13T08:04:28.515Z,50976.00
2018-05-13T08:05:28.515Z,52000.00
2018-05-13T08:06:28.548Z,47904.00
2018-05-13T08:07:28.608Z,43424.00
2018-05-13T08:08:28.612Z,51232.00
2018-05-13T08:09:28.638Z,58208.00
2018-05-13T08:10:28.669Z,63104.00
2018-05-13T08:11:28.699Z,63200.00
2018-05-13T08:12:28.724Z,62720.00
2018-05-13T08:13:28.753Z,63360.00
2018-05-13T08:14:28.932Z,63424.00
2018-05-13T08:15:28.819Z,63840.00
2018-05-13T08:16:28.848Z,62848.00
2018-05-13T08:17:28.878Z,64608.00
2018-05-13T08:18:28.972Z,65152.00
2018-05-13T08:19:28.998Z,64224.00
2018-05-13T08:20:29.042Z,65632.00
2018-05-13T08:21:28.987Z,66464.00
2018-05-13T08:22:29.127Z,65664.00
2018-05-13T08:23:29.088Z,68576.00
2018-05-13T08:24:29.188Z,65280.00
2018-05-13T08:25:29.298Z,65984.00
2018-05-13T08:26:29.144Z,66880.00
2018-05-13T08:27:29.167Z,49664.00
2018-05-13T08:28:29.239Z,22912.00
2018-05-13T08:29:29.228Z,19776.00
2018-05-13T08:30:29.337Z,19116.00
2018-05-13T08:31:29.286Z,18792.00
2018-05-13T08:32:29.310Z,18512.00
2018-05-13T08:33:29.332Z,18244.00
2018-05-13T08:34:29.369Z,17992.00
2018-05-13T08:35:29.392Z,17804.00
2018-05-13T08:36:29.421Z,17640.00
2018-05-13T08:37:29.514Z,17484.00
2018-05-13T08:38:29.481Z,17348.00
2018-05-13T08:39:29.521Z,17264.00
2018-05-13T08:40:29.522Z,17124.00
2018-05-13T08:41:29.554Z,16984.00
2018-05-13T08:42:29.581Z,16804.00
2018-05-13T08:43:29.623Z,16648.00
2018-05-13T08:44:29.666Z,16492.00
2018-05-13T08:45:29.676Z,16356.00
2018-05-13T08:46:29.711Z,16268.00
2018-05-13T08:47:29.731Z,16220.00
2018-05-13T08:48:29.840Z,16168.00
2018-05-13T08:49:29.770Z,16092.00
2018-05-13T08:50:29.798Z,16004.00
2018-05-13T08:51:29.887Z,15924.00
2018-05-13T08:52:29.927Z,15860.00
2018-05-13T08:53:29.994Z,15848.00
2018-05-13T08:54:29.898Z,15844.00
2018-05-13T08:55:30.053Z,15820.00
2018-05-13T08:56:29.949Z,15720.00
2018-05-13T08:57:29.977Z,15660.00
2018-05-13T08:58:30.008Z,15564.00
2018-05-13T08:59:30.034Z,15452.00
2018-05-13T09:00:30.051Z,15348.00
2018-05-13T09:01:30.079Z,15196.00
2018-05-13T09:02:30.209Z,15036.00
2018-05-13T09:03:30.142Z,14832.00
2018-05-13T09:04:30.169Z,14644.00
2018-05-13T09:05:30.232Z,14416.00
2018-05-13T09:06:30.216Z,14124.00
2018-05-13T09:07:30.230Z,13800.00
2018-05-13T09:08:30.352Z,13540.00
2018-05-13T09:09:30.287Z,13440.00
2018-05-13T09:10:30.384Z,13372.00
2018-05-13T09:11:30.334Z,13332.00
2018-05-13T09:12:30.372Z,13412.00
2018-05-13T09:13:30.389Z,13584.00
2018-05-13T09:14:30.512Z,13692.00
2018-05-13T09:15:30.436Z,14036.00
2018-05-13T09:16:30.469Z,14200.00
2018-05-13T09:17:30.538Z,14280.00
2018-05-13T09:18:30.518Z,14304.00
2018-05-13T09:19:30.543Z,14308.00
2018-05-13T09:20:30.706Z,14272.00
2018-05-13T09:21:30.591Z,14208.00
2018-05-13T09:22:30.621Z,14056.00
2018-05-13T09:23:30.642Z,14004.00
2018-05-13T09:24:30.662Z,13960.00
2018-05-13T09:25:30.689Z,13964.00
2018-05-13T09:26:30.742Z,13976.00
2018-05-13T09:27:30.795Z,13956.00
2018-05-13T09:28:30.765Z,13964.00
2018-05-13T09:29:30.797Z,13988.00
2018-05-13T09:30:30.868Z,13976.00
2018-05-13T09:31:30.877Z,13900.00
2018-05-13T09:32:30.870Z,13848.00
2018-05-13T09:33:30.894Z,13764.00
2018-05-13T09:34:30.919Z,13672.00
2018-05-13T09:35:30.956Z,13568.00
2018-05-13T09:36:30.973Z,13488.00
2018-05-13T09:37:31.078Z,13240.00
2018-05-13T09:38:31.023Z,12908.00
2018-05-13T09:39:31.062Z,12364.00
2018-05-13T09:40:31.130Z,11848.00
2018-05-13T09:41:31.152Z,11856.00
2018-05-13T09:42:31.118Z,12116.00
2018-05-13T09:43:31.149Z,12484.00
2018-05-13T09:44:31.174Z,12752.00
2018-05-13T09:45:31.215Z,12904.00
2018-05-13T09:46:31.308Z,13096.00
2018-05-13T09:47:31.251Z,13268.00
2018-05-13T09:48:31.272Z,12996.00
2018-05-13T09:49:31.296Z,12628.00
2018-05-13T09:50:31.340Z,12420.00
2018-05-13T09:51:31.349Z,12728.00
2018-05-13T09:52:31.425Z,12920.00
2018-05-13T09:53:31.400Z,12952.00
2018-05-13T09:54:31.433Z,12128.00
2018-05-13T09:55:31.455Z,13076.00
2018-05-13T09:56:31.562Z,12384.00
2018-05-13T09:57:31.589Z,12520.00
2018-05-13T09:58:31.564Z,12892.00
2018-05-13T09:59:31.563Z,14028.00
2018-05-13T10:00:31.578Z,14416.00
2018-05-13T10:01:31.623Z,14644.00
2018-05-13T10:02:31.626Z,14640.00
2018-05-13T10:03:31.654Z,14096.00
2018-05-13T10:04:31.783Z,14884.00
2018-05-13T10:05:31.718Z,15012.00
2018-05-13T10:06:31.731Z,15896.00
2018-05-13T10:07:31.756Z,16576.00
2018-05-13T10:08:31.846Z,17168.00
2018-05-13T10:09:31.894Z,18016.00
2018-05-13T10:10:31.841Z,17348.00
2018-05-13T10:11:31.893Z,17240.00
2018-05-13T10:12:31.966Z,17132.00
2018-05-13T10:13:31.905Z,16556.00
2018-05-13T10:14:32.023Z,16540.00
2018-05-13T10:15:31.968Z,16508.00
2018-05-13T10:16:32.044Z,16192.00
2018-05-13T10:17:32.017Z,15844.00
2018-05-13T10:18:32.084Z,14600.00
2018-05-13T10:19:32.116Z,13456.00
2018-05-13T10:20:32.083Z,14508.00
2018-05-13T10:21:32.109Z,15288.00
2018-05-13T10:22:32.135Z,15724.00
2018-05-13T10:23:32.159Z,16128.00
2018-05-13T10:24:32.189Z,16100.00
2018-05-13T10:25:32.211Z,15088.00
2018-05-13T10:26:32.264Z,15468.00
2018-05-13T10:27:32.267Z,15268.00
2018-05-13T10:28:32.296Z,14568.00
2018-05-13T10:29:32.318Z,15380.00
2018-05-13T10:30:32.369Z,14704.00
2018-05-13T10:31:32.374Z,14376.00
2018-05-13T10:32:32.391Z,14304.00
2018-05-13T10:33:32.485Z,13884.00
2018-05-13T10:34:32.456Z,13512.00
2018-05-13T10:35:32.468Z,13320.00
2018-05-13T10:36:32.495Z,12916.00
2018-05-13T10:37:32.530Z,12396.00
2018-05-13T10:38:32.545Z,12500.00
2018-05-13T10:39:32.615Z,12228.00
2018-05-13T10:40:32.697Z,12044.00
2018-05-13T10:41:32.673Z,12064.00
2018-05-13T10:42:32.707Z,12224.00
2018-05-13T10:43:32.686Z,12300.00
2018-05-13T10:44:32.745Z,12508.00
2018-05-13T10:45:32.884Z,12704.00
2018-05-13T10:46:32.750Z,13044.00
2018-05-13T10:47:32.774Z,12728.00
2018-05-13T10:48:32.811Z,12392.00
2018-05-13T10:49:32.829Z,12016.00
2018-05-13T10:50:32.855Z,11092.00
2018-05-13T10:51:32.883Z,11040.00
2018-05-13T10:52:32.912Z,11716.00
2018-05-13T10:53:32.941Z,11804.00
2018-05-13T10:54:33.033Z,10748.00
2018-05-13T10:55:33.047Z,10280.00
2018-05-13T10:56:33.024Z,9640.00
2018-05-13T10:57:33.151Z,9292.00
2018-05-13T10:58:33.094Z,9172.00
2018-05-13T10:59:33.280Z,9292.00
2018-05-13T11:00:33.151Z,10204.00
2018-05-13T11:01:33.179Z,10332.00
2018-05-13T11:02:33.284Z,11256.00
2018-05-13T11:03:33.249Z,13084.00
2018-05-13T11:04:33.211Z,12972.00
2018-05-13T11:05:33.319Z,14012.00
2018-05-13T11:06:33.274Z,14072.00
2018-05-13T11:07:33.382Z,12328.00
2018-05-13T11:08:33.375Z,11368.00
2018-05-13T11:09:33.347Z,10572.00
2018-05-13T11:10:33.435Z,10152.00
2018-05-13T11:11:33.421Z,10316.00
2018-05-13T11:12:33.409Z,10400.00
2018-05-13T11:13:33.471Z,10984.00
2018-05-13T11:14:33.459Z,11712.00
2018-05-13T11:15:33.504Z,12804.00
2018-05-13T11:16:33.512Z,13280.00
2018-05-13T11:17:33.529Z,14624.00
2018-05-13T11:18:33.559Z,13964.00
2018-05-13T11:19:33.585Z,13932.00
2018-05-13T11:20:33.614Z,14948.00
2018-05-13T11:21:33.645Z,14820.00
2018-05-13T11:22:33.659Z,16000.00
2018-05-13T11:23:33.758Z,15408.00
2018-05-13T11:24:33.704Z,15408.00
2018-05-13T11:25:33.731Z,15020.00
2018-05-13T11:26:33.756Z,14352.00
2018-05-13T11:27:33.872Z,13664.00
2018-05-13T11:28:33.801Z,13436.00
2018-05-13T11:29:33.844Z,13872.00
2018-05-13T11:30:33.859Z,12852.00
2018-05-13T11:31:33.881Z,11584.00
2018-05-13T11:32:33.911Z,11108.00
2018-05-13T11:33:33.939Z,11820.00
2018-05-13T11:34:33.966Z,10740.00
2018-05-13T11:35:33.983Z,11372.00
2018-05-13T11:36:34.023Z,11848.00
2018-05-13T11:37:34.051Z,12156.00
2018-05-13T11:38:34.138Z,12384.00
2018-05-13T11:39:34.092Z,12332.00
2018-05-13T11:40:34.106Z,12076.00
2018-05-13T11:41:34.131Z,11476.00
2018-05-13T11:42:34.168Z,10888.00
2018-05-13T11:43:34.183Z,10796.00
2018-05-13T11:44:34.209Z,11008.00
2018-05-13T11:45:34.237Z,11480.00
2018-05-13T11:46:34.264Z,11776.00
2018-05-13T11:47:34.380Z,11780.00
2018-05-13T11:48:34.323Z,11580.00
2018-05-13T11:49:34.344Z,11380.00
2018-05-13T11:50:34.485Z,11384.00
2018-05-13T11:51:34.385Z,11552.00
2018-05-13T11:52:34.409Z,12068.00
2018-05-13T11:53:34.645Z,11432.00
2018-05-13T11:54:34.463Z,11636.00
2018-05-13T11:55:34.485Z,11888.00
2018-05-13T11:56:34.534Z,12096.00
2018-05-13T11:57:34.728Z,12316.00
2018-05-13T11:58:34.672Z,12684.00
2018-05-13T11:59:34.597Z,12784.00
2018-05-13T12:00:34.607Z,12584.00
2018-05-13T12:01:34.641Z,11684.00
2018-05-13T12:02:34.706Z,11484.00
2018-05-13T12:03:34.775Z,11572.00
2018-05-13T12:04:34.710Z,11976.00
2018-05-13T12:05:34.740Z,12468.00
2018-05-13T12:06:34.895Z,12500.00
2018-05-13T12:07:34.839Z,12780.00
2018-05-13T12:08:34.805Z,13972.00
2018-05-13T12:09:34.886Z,13996.00
2018-05-13T12:10:34.883Z,13216.00
2018-05-13T12:11:34.905Z,13676.00